Time;durP1;ratioP1;P1;durP2;ratioP2;P2;SDS_P1;SDS_P2;PMS_P1;PMS_P2;Temp;Humidity;BMP_temperature;BMP_pressure;BME280_temperature;BME280_humidity;BME280_pressure;Samples;Min_cycle;Max_cycle;Signal;HPM_P1;HPM_P2
2023/09/10 00:02:15;;;;;;;15.63;8.75;;;;;;;22.52;73.86;101778.59;5057221;27;96523;-27
2023/09/10 00:04:40;;;;;;;14.35;10.18;;;;;;;22.52;73.49;101784.13;5057385;27;96663;-27
2023/09/10 00:07:07;;;;;;;15.65;10.40;;;;;;;22.51;73.96;101782.41;5056448;27;97339;-27
2023/09/10 00:09:33;;;;;;;15.75;9.65;;;;;;;22.43;74.19;101775.75;5038395;27;100792;-27
2023/09/10 00:11:58;;;;;;;17.08;9.68;;;;;;;22.44;74.32;101776.59;5057364;27;96602;-28
2023/09/10 00:14:23;;;;;;;14.20;9.45;;;;;;;22.39;74.57;101779.81;5057295;27;96811;-28
2023/09/10 00:16:49;;;;;;;16.95;8.93;;;;;;;22.41;74.92;101777.78;5056782;27;97530;-27
2023/09/10 00:19:15;;;;;;;14.35;9.43;;;;;;;22.37;74.86;101773.56;5056732;27;97219;-28
2023/09/10 00:21:40;;;;;;;15.68;8.98;;;;;;;22.37;74.93;101775.47;5038563;27;96609;-28
2023/09/10 00:24:06;;;;;;;16.35;9.48;;;;;;;22.33;74.90;101780.38;5056878;27;96832;-27
2023/09/10 00:26:32;;;;;;;15.07;9.77;;;;;;;22.35;74.35;101778.34;5038277;27;101408;-28
2023/09/10 00:28:57;;;;;;;16.58;9.77;;;;;;;22.30;74.55;101769.66;5056366;27;99139;-27
2023/09/10 00:31:22;;;;;;;14.90;9.57;;;;;;;22.29;75.10;101769.81;5056434;27;96557;-28
2023/09/10 00:33:48;;;;;;;13.90;9.68;;;;;;;22.34;74.41;101773.88;5057028;27;96751;-27
2023/09/10 00:36:13;;;;;;;15.43;9.55;;;;;;;22.28;74.41;101768.94;5056612;27;97248;-27
2023/09/10 00:38:38;;;;;;;13.43;8.75;;;;;;;22.31;74.54;101770.50;5056564;27;97250;-27
2023/09/10 00:41:07;;;;;;;16.88;10.18;;;;;;;22.31;74.36;101768.66;5056772;27;96746;-28
2023/09/10 00:43:34;;;;;;;15.55;8.88;;;;;;;22.26;75.16;101757.16;5037356;27;96851;-27
2023/09/10 00:45:59;;;;;;;15.57;9.38;;;;;;;22.30;75.34;101766.88;5021122;27;100903;-27
2023/09/10 00:48:25;;;;;;;14.80;10.23;;;;;;;22.24;74.86;101753.69;5056699;27;97416;-27
2023/09/10 00:50:51;;;;;;;16.58;8.18;;;;;;;22.27;75.03;101756.16;5056898;27;96448;-27
2023/09/10 00:53:18;;;;;;;17.48;10.45;;;;;;;22.23;74.81;101762.97;5038142;27;96894;-28
2023/09/10 00:55:44;;;;;;;16.15;9.52;;;;;;;22.22;74.98;101758.50;5037262;27;101003;-28
2023/09/10 00:58:10;;;;;;;18.58;9.70;;;;;;;22.24;75.68;101764.75;5037686;27;101413;-27
2023/09/10 01:00:35;;;;;;;13.95;9.27;;;;;;;22.21;75.50;101762.25;5055616;27;96560;-27
2023/09/10 01:03:01;;;;;;;14.40;9.45;;;;;;;22.19;75.25;101759.63;5056480;27;96722;-27
2023/09/10 01:05:26;;;;;;;15.20;9.52;;;;;;;22.14;75.70;101761.06;5037646;27;100981;-28
2023/09/10 01:07:53;;;;;;;16.45;9.85;;;;;;;22.13;74.97;101760.22;5056054;27;97246;-27
2023/09/10 01:10:21;;;;;;;17.98;9.93;;;;;;;22.13;75.84;101773.16;5056330;27;96484;-27
2023/09/10 01:13:00;;;;;;;12.95;8.95;;;;;;;22.10;75.92;101766.03;5038175;27;96819;-27
2023/09/10 01:15:29;;;;;;;14.98;9.32;;;;;;;22.08;75.90;101773.59;5037494;27;100888;-27
2023/09/10 01:18:03;;;;;;;15.25;9.85;;;;;;;22.06;75.80;101773.72;5037383;27;100774;-27
2023/09/10 01:20:57;;;;;;;17.58;9.60;;;;;;;22.04;76.26;101775.75;5037144;27;96621;-28
2023/09/10 01:24:03;;;;;;;16.95;9.68;;;;;;;22.02;77.11;101777.81;5055481;27;96831;-27
2023/09/10 01:26:29;;;;;;;13.60;9.57;;;;;;;21.97;75.93;101774.59;5025472;27;100899;-27
2023/09/10 01:28:54;;;;;;;16.30;9.85;;;;;;;21.91;76.13;101761.41;5055871;27;97798;-27
2023/09/10 01:31:20;;;;;;;16.88;9.70;;;;;;;21.89;75.89;101774.47;5056055;27;96626;-28
2023/09/10 01:34:00;;;;;;;16.70;9.75;;;;;;;21.89;76.19;101770.84;5055494;27;97122;-27
2023/09/10 01:36:38;;;;;;;15.60;9.32;;;;;;;21.92;76.31;101774.16;5055853;27;97460;-27
2023/09/10 01:39:17;;;;;;;13.75;9.32;;;;;;;21.89;76.13;101777.22;5037595;27;101388;-27
2023/09/10 01:41:45;;;;;;;15.50;10.45;;;;;;;21.87;76.13;101772.88;5055542;27;96557;-27
2023/09/10 01:44:13;;;;;;;15.07;10.23;;;;;;;21.86;76.25;101777.53;5036796;27;96542;-28
2023/09/10 01:46:40;;;;;;;14.90;9.45;;;;;;;21.81;76.59;101779.84;5055143;27;97369;-28
2023/09/10 01:49:05;;;;;;;15.45;9.77;;;;;;;21.80;76.80;101776.19;5036880;27;101006;-28
2023/09/10 01:51:31;;;;;;;17.45;9.95;;;;;;;21.78;76.08;101769.09;5055539;27;96536;-28
2023/09/10 01:53:57;;;;;;;15.65;9.77;;;;;;;21.77;75.80;101773.75;5055389;27;96846;-27
2023/09/10 01:56:22;;;;;;;17.25;11.00;;;;;;;21.76;76.45;101779.41;5055373;27;97936;-27
2023/09/10 01:58:48;;;;;;;14.82;9.90;;;;;;;21.77;76.04;101783.91;5055112;27;98246;-27
2023/09/10 02:01:13;;;;;;;17.20;10.40;;;;;;;21.76;76.50;101785.81;5055595;27;96554;-27
2023/09/10 02:03:38;;;;;;;19.38;10.82;;;;;;;21.73;76.25;101788.84;5055955;27;98357;-27
2023/09/10 02:06:04;;;;;;;14.13;9.80;;;;;;;21.73;76.85;101785.22;5054852;27;98998;-28
2023/09/10 02:08:30;;;;;;;17.25;9.40;;;;;;;21.69;76.80;101781.00;5055199;27;97737;-27
2023/09/10 02:10:55;;;;;;;15.77;9.95;;;;;;;21.70;76.51;101785.50;5054248;27;96623;-27
2023/09/10 02:13:21;;;;;;;19.77;10.25;;;;;;;21.70;76.78;101785.50;5055028;27;96820;-27
2023/09/10 02:15:46;;;;;;;18.25;10.57;;;;;;;21.65;77.19;101790.59;5055014;27;97365;-27
2023/09/10 02:18:12;;;;;;;17.02;10.43;;;;;;;21.66;77.09;101784.91;5054985;27;97781;-27
2023/09/10 02:20:37;;;;;;;16.13;10.50;;;;;;;21.65;76.94;101796.97;5055307;27;96744;-27
2023/09/10 02:23:04;;;;;;;14.93;9.90;;;;;;;21.63;77.16;101793.47;5055261;27;96744;-27
2023/09/10 02:25:30;;;;;;;17.33;9.77;;;;;;;21.59;76.48;101790.13;5036094;27;100815;-27
2023/09/10 02:27:56;;;;;;;16.33;10.70;;;;;;;21.57;76.41;101786.66;5036770;27;100763;-27
2023/09/10 02:30:21;;;;;;;17.08;10.80;;;;;;;21.55;77.54;101785.06;5036815;27;96749;-27
2023/09/10 02:32:46;;;;;;;19.05;10.13;;;;;;;21.54;77.38;101775.91;5054910;27;96791;-27
2023/09/10 02:35:12;;;;;;;19.40;11.35;;;;;;;21.52;77.14;101775.16;5054564;27;97492;-27
2023/09/10 02:37:37;;;;;;;18.17;11.63;;;;;;;21.52;77.67;101780.69;5054780;27;97808;-27
2023/09/10 02:40:06;;;;;;;17.05;11.23;;;;;;;21.50;76.97;101777.22;5054768;27;96517;-27
2023/09/10 02:42:31;;;;;;;17.08;10.00;;;;;;;21.42;77.71;101769.63;5035564;27;96975;-28
2023/09/10 02:44:58;;;;;;;17.52;10.90;;;;;;;21.38;77.86;101767.28;5054747;27;97493;-27
2023/09/10 02:47:24;;;;;;;18.35;11.20;;;;;;;21.42;77.71;101771.53;5054412;27;99250;-28
2023/09/10 02:49:50;;;;;;;18.08;11.85;;;;;;;21.39;76.99;101758.00;5036380;27;96794;-28
2023/09/10 02:52:15;;;;;;;17.65;11.48;;;;;;;21.40;77.48;101763.44;5055074;27;97339;-27
2023/09/10 02:54:40;;;;;;;17.45;10.70;;;;;;;21.38;77.54;101768.19;5054464;27;97943;-27
2023/09/10 02:57:06;;;;;;;15.93;10.77;;;;;;;21.37;77.74;101760.91;5054027;27;99222;-28
2023/09/10 02:59:31;;;;;;;21.33;11.10;;;;;;;21.41;77.51;101772.56;5054450;27;96721;-27
2023/09/10 03:01:57;;;;;;;19.23;12.07;;;;;;;21.34;77.66;101766.72;5054546;27;96652;-27
2023/09/10 03:04:22;;;;;;;19.88;12.25;;;;;;;21.30;77.61;101770.75;5054336;27;97384;-28
2023/09/10 03:06:50;;;;;;;17.77;11.07;;;;;;;21.29;77.30;101768.16;5054252;27;97871;-27
2023/09/10 03:09:16;;;;;;;17.00;11.63;;;;;;;21.30;77.89;101776.25;5036264;27;96600;-28
2023/09/10 03:11:43;;;;;;;18.45;11.85;;;;;;;21.28;77.72;101763.63;5036072;27;96954;-27
2023/09/10 03:14:09;;;;;;;18.27;12.13;;;;;;;21.24;78.10;101765.81;5035985;27;101029;-27
2023/09/10 03:16:40;;;;;;;17.33;11.60;;;;;;;21.26;78.16;101771.16;5036078;27;100803;-27
2023/09/10 03:19:06;;;;;;;18.73;11.82;;;;;;;21.24;77.91;101770.44;5054754;27;96636;-27
2023/09/10 03:21:31;;;;;;;16.98;11.05;;;;;;;21.20;78.10;101762.47;5054509;27;96796;-28
2023/09/10 03:23:57;;;;;;;17.90;11.48;;;;;;;21.16;78.21;101762.88;5056751;27;99072;-27
2023/09/10 03:26:22;;;;;;;17.25;11.40;;;;;;;21.16;78.73;101762.88;5057200;27;97321;-27
2023/09/10 03:28:48;;;;;;;17.48;11.85;;;;;;;21.16;78.53;101766.50;5057895;27;96561;-27
2023/09/10 03:31:13;;;;;;;20.63;12.27;;;;;;;21.13;78.45;101764.03;5057581;27;96786;-27
2023/09/10 03:33:40;;;;;;;19.33;12.10;;;;;;;21.08;78.40;101748.97;5057332;27;99534;-27
2023/09/10 03:36:05;;;;;;;21.30;12.07;;;;;;;21.12;78.30;101761.44;5039175;27;101276;-28
2023/09/10 03:38:31;;;;;;;21.00;11.88;;;;;;;21.06;79.59;101750.97;5057768;27;96658;-27
2023/09/10 03:40:56;;;;;;;21.33;12.10;;;;;;;21.03;79.49;101749.38;5057876;27;96844;-28
2023/09/10 03:43:22;;;;;;;20.92;12.10;;;;;;;20.99;79.98;101753.41;5056525;27;99197;-27
2023/09/10 03:45:47;;;;;;;19.45;12.10;;;;;;;21.01;79.45;101756.91;5057543;27;97102;-27
2023/09/10 03:48:15;;;;;;;21.75;12.93;;;;;;;20.95;79.63;101754.69;5056969;27;96544;-27
2023/09/10 03:50:41;;;;;;;17.63;11.52;;;;;;;20.96;79.72;101756.47;5057406;27;97110;-27
2023/09/10 03:53:06;;;;;;;18.48;11.75;;;;;;;20.95;79.18;101751.94;5057261;27;98200;-27
2023/09/10 03:55:32;;;;;;;17.85;12.00;;;;;;;20.96;79.89;101754.56;5038546;27;100810;-27
2023/09/10 03:57:58;;;;;;;22.90;12.32;;;;;;;20.90;80.16;101741.34;5057509;27;96532;-28
2023/09/10 04:00:23;;;;;;;20.95;12.52;;;;;;;20.91;79.62;101748.63;5057150;27;96853;-27
2023/09/10 04:02:49;;;;;;;19.23;12.68;;;;;;;20.92;79.97;101749.47;5056637;27;99343;-28
2023/09/10 04:05:15;;;;;;;24.85;13.05;;;;;;;20.92;79.80;101755.84;5057413;27;97826;-29
2023/09/10 04:07:40;;;;;;;20.10;12.57;;;;;;;20.88;79.57;101751.66;5038846;27;96580;-30
2023/09/10 04:10:07;;;;;;;20.77;12.75;;;;;;;20.87;79.81;101758.16;5057213;27;96778;-27
2023/09/10 04:12:32;;;;;;;21.70;12.68;;;;;;;20.84;80.05;101752.06;5056511;27;98119;-28
2023/09/10 04:14:58;;;;;;;19.83;12.40;;;;;;;20.81;80.14;101746.81;5056667;27;98741;-27
2023/09/10 04:17:28;;;;;;;20.60;12.15;;;;;;;20.84;79.94;101754.81;5057492;27;96438;-27
2023/09/10 04:19:54;;;;;;;20.67;11.90;;;;;;;20.80;79.65;101743.19;5056971;27;96746;-27
2023/09/10 04:22:19;;;;;;;22.52;12.40;;;;;;;20.85;80.28;101759.31;5038231;27;101115;-27
2023/09/10 04:24:44;;;;;;;21.40;13.57;;;;;;;20.79;79.92;101756.09;5056672;27;96957;-27
2023/09/10 04:27:10;;;;;;;23.65;13.27;;;;;;;20.76;80.30;101748.13;5038506;27;96530;-28
2023/09/10 04:29:35;;;;;;;21.63;13.25;;;;;;;20.75;80.57;101751.00;5057056;27;96789;-28
2023/09/10 04:32:00;;;;;;;19.85;11.77;;;;;;;20.75;81.98;101753.78;5056657;27;97390;-27
2023/09/10 04:34:26;;;;;;;19.55;12.38;;;;;;;20.76;80.45;101747.25;5055601;27;97287;-28
2023/09/10 04:36:51;;;;;;;21.35;12.60;;;;;;;20.78;80.41;101756.25;5056256;27;96573;-28
2023/09/10 04:39:17;;;;;;;18.13;12.15;;;;;;;20.77;80.35;101747.09;5056658;27;96904;-28
2023/09/10 04:41:43;;;;;;;24.15;13.90;;;;;;;20.74;80.32;101747.41;5037565;27;101282;-27
2023/09/10 04:44:08;;;;;;;20.70;12.73;;;;;;;20.78;80.46;101759.00;5055901;27;97990;-28
2023/09/10 04:46:33;;;;;;;20.90;12.48;;;;;;;20.76;80.34;101756.41;5056653;27;96485;-27
2023/09/10 04:48:59;;;;;;;20.38;13.15;;;;;;;20.69;80.49;101744.19;5056476;27;96759;-27
2023/09/10 04:51:24;;;;;;;23.52;12.60;;;;;;;20.71;80.36;101753.19;5056072;27;99674;-28
2023/09/10 04:53:50;;;;;;;20.88;12.82;;;;;;;20.67;80.94;101745.34;5056502;27;97742;-27
2023/09/10 04:56:15;;;;;;;22.77;12.50;;;;;;;20.71;80.34;101749.53;5056416;27;96553;-27
2023/09/10 04:58:40;;;;;;;21.65;13.45;;;;;;;20.72;80.87;101759.56;5056491;27;96748;-27
2023/09/10 05:01:06;;;;;;;21.00;11.70;;;;;;;20.64;80.79;101749.25;5055759;27;101801;-28
2023/09/10 05:03:32;;;;;;;19.83;12.23;;;;;;;20.64;81.12;101757.50;5056145;27;97799;-27
2023/09/10 05:06:01;;;;;;;21.67;13.25;;;;;;;20.67;80.52;101751.72;5056124;27;96518;-27
2023/09/10 05:08:27;;;;;;;21.92;13.45;;;;;;;20.66;81.20;101754.59;5037981;27;96793;-27
2023/09/10 05:10:53;;;;;;;22.63;12.60;;;;;;;20.66;81.01;101766.47;5056080;27;97828;-29
2023/09/10 05:13:19;;;;;;;21.33;12.23;;;;;;;20.65;80.59;101753.72;5037625;27;100654;-27
2023/09/10 05:15:46;;;;;;;21.73;13.43;;;;;;;20.68;80.92;101753.44;5056139;27;96444;-27
2023/09/10 05:18:12;;;;;;;20.58;12.38;;;;;;;20.63;80.76;101755.75;5038119;27;97001;-27
2023/09/10 05:20:37;;;;;;;21.27;13.23;;;;;;;20.61;81.57;101754.13;5055856;27;97467;-27
2023/09/10 05:23:02;;;;;;;23.42;12.95;;;;;;;20.61;81.42;101755.00;5055348;27;99078;-27
2023/09/10 05:25:28;;;;;;;22.70;13.05;;;;;;;20.65;80.82;101756.47;5055176;27;96450;-27
2023/09/10 05:27:53;;;;;;;21.75;13.35;;;;;;;20.63;80.50;101753.00;5055731;27;96800;-27
2023/09/10 05:30:18;;;;;;;22.63;13.77;;;;;;;20.66;80.76;101752.72;5055759;27;97467;-28
2023/09/10 05:32:44;;;;;;;21.45;12.45;;;;;;;20.66;80.94;101755.47;5055784;27;97757;-28
2023/09/10 05:35:11;;;;;;;24.92;12.95;;;;;;;20.67;81.21;101750.84;5056031;27;96626;-28
2023/09/10 05:37:36;;;;;;;24.50;14.15;;;;;;;20.63;80.70;101761.25;5055732;27;96708;-28
2023/09/10 05:40:03;;;;;;;19.38;13.45;;;;;;;20.64;81.03;101760.25;5055521;27;97425;-28
2023/09/10 05:42:28;;;;;;;19.63;12.38;;;;;;;20.63;81.08;101758.50;5036482;27;101934;-28
2023/09/10 05:44:54;;;;;;;22.70;13.65;;;;;;;20.61;80.91;101763.25;5055914;27;96567;-27
2023/09/10 05:47:20;;;;;;;22.60;12.82;;;;;;;20.66;81.11;101768.38;5055568;27;96805;-27
2023/09/10 05:49:51;;;;;;;22.08;13.75;;;;;;;20.61;81.67;101763.25;5054594;27;99287;-29
2023/09/10 05:52:17;;;;;;;20.27;12.65;;;;;;;20.62;81.33;101776.03;5037007;27;100734;-27
2023/09/10 05:54:42;;;;;;;25.77;13.57;;;;;;;20.62;81.19;101765.03;5055795;27;96426;-28
2023/09/10 05:57:07;;;;;;;23.80;13.90;;;;;;;20.64;80.40;101760.25;5055614;27;96767;-27
2023/09/10 05:59:33;;;;;;;25.85;14.48;;;;;;;20.67;80.81;101767.38;5054989;27;99331;-28
2023/09/10 06:01:58;;;;;;;23.90;14.23;;;;;;;20.68;80.84;101766.34;5054949;27;98913;-28
2023/09/10 06:04:23;;;;;;;23.55;13.52;;;;;;;20.71;80.82;101775.22;5055406;27;96454;-28
2023/09/10 06:06:49;;;;;;;19.42;13.00;;;;;;;20.75;80.66;101771.16;5055530;27;96821;-27
2023/09/10 06:09:14;;;;;;;20.70;13.52;;;;;;;20.74;80.86;101780.44;5055251;27;97888;-27
2023/09/10 06:11:40;;;;;;;24.92;13.05;;;;;;;20.75;80.50;101773.91;5055227;27;97438;-27
2023/09/10 06:14:05;;;;;;;28.30;14.32;;;;;;;20.78;80.89;101775.50;5055107;27;96541;-27
2023/09/10 06:16:30;;;;;;;27.60;13.93;;;;;;;20.84;80.80;101779.63;5055172;27;96830;-27
2023/09/10 06:18:56;;;;;;;24.88;14.48;;;;;;;20.91;80.59;101787.19;5055106;27;98090;-27
2023/09/10 06:21:21;;;;;;;28.67;14.93;;;;;;;20.97;80.40;101791.25;5054466;27;99102;-27
2023/09/10 06:23:47;;;;;;;22.85;14.65;;;;;;;20.93;80.36;101785.16;5055323;27;96592;-27
2023/09/10 06:26:13;;;;;;;25.67;15.10;;;;;;;20.98;80.40;101785.59;5055020;27;96822;-27
2023/09/10 06:28:39;;;;;;;22.92;13.50;;;;;;;21.04;81.12;101786.06;5054668;27;99604;-27
2023/09/10 06:31:06;;;;;;;25.90;14.90;;;;;;;21.08;80.06;101796.66;5055261;27;97341;-27
2023/09/10 06:33:31;;;;;;;25.30;14.82;;;;;;;21.09;80.26;101783.75;5036529;27;96700;-28
2023/09/10 06:35:57;;;;;;;27.45;14.85;;;;;;;21.15;80.58;101794.22;5055155;27;96900;-28
2023/09/10 06:38:22;;;;;;;23.88;14.45;;;;;;;21.28;79.82;101804.97;5054024;27;99299;-27
2023/09/10 06:40:48;;;;;;;24.65;13.95;;;;;;;21.35;79.57;101797.88;5054172;27;99316;-27
2023/09/10 06:43:14;;;;;;;23.60;14.93;;;;;;;21.47;78.95;101799.53;5054079;27;96575;-27
2023/09/10 06:45:41;;;;;;;24.55;15.07;;;;;;;21.57;78.75;101794.94;5055120;27;96658;-27
2023/09/10 06:48:06;;;;;;;26.35;14.30;;;;;;;21.69;78.24;101797.53;5054248;27;99329;-27
2023/09/10 06:50:32;;;;;;;21.83;13.82;;;;;;;21.79;78.19;101796.53;5054532;27;97082;-27
2023/09/10 06:52:57;;;;;;;30.80;14.95;;;;;;;21.95;77.91;101803.34;5053878;27;96587;-27
2023/09/10 06:55:23;;;;;;;25.52;14.68;;;;;;;22.08;77.25;101794.78;5054637;27;97801;-27
2023/09/10 06:57:49;;;;;;;23.80;13.85;;;;;;;22.21;77.14;101804.53;5037743;27;101124;-27
2023/09/10 07:00:15;;;;;;;22.50;13.75;;;;;;;22.32;77.16;101806.25;5058016;27;97797;-27
2023/09/10 07:02:40;;;;;;;27.80;15.43;;;;;;;22.41;76.84;101807.28;5057744;27;96456;-29
2023/09/10 07:05:06;;;;;;;24.65;15.07;;;;;;;22.52;76.42;101812.59;5058190;27;96876;-27
2023/09/10 07:07:31;;;;;;;25.60;14.45;;;;;;;22.56;76.88;101796.63;5058065;27;98011;-28
2023/09/10 07:09:57;;;;;;;23.25;15.18;;;;;;;22.65;76.25;101804.88;5057962;27;97766;-27
2023/09/10 07:12:22;;;;;;;27.08;15.10;;;;;;;22.73;76.42;101803.25;5058169;27;96551;-27
2023/09/10 07:14:49;;;;;;;26.85;15.52;;;;;;;22.93;75.43;101801.28;5057929;27;96853;-27
2023/09/10 07:17:15;;;;;;;24.73;14.38;;;;;;;23.09;75.49;101799.63;5057421;27;99636;-27
2023/09/10 07:19:40;;;;;;;24.23;14.13;;;;;;;23.27;74.93;101796.94;5039476;27;100895;-28
2023/09/10 07:22:06;;;;;;;23.55;14.38;;;;;;;23.41;74.52;101791.91;5057861;27;96427;-27
2023/09/10 07:24:31;;;;;;;24.67;14.40;;;;;;;23.59;74.36;101803.84;5057668;27;96858;-28
2023/09/10 07:26:58;;;;;;;23.00;14.43;;;;;;;23.70;74.06;101798.09;5057149;27;97950;-27
2023/09/10 07:29:24;;;;;;;24.35;14.38;;;;;;;23.84;72.87;101805.03;5057544;27;97791;-27
2023/09/10 07:31:49;;;;;;;21.85;13.93;;;;;;;24.00;73.32;101804.28;5058194;27;96486;-27
2023/09/10 07:34:15;;;;;;;26.77;14.27;;;;;;;24.14;72.61;101802.84;5057448;27;96878;-27
2023/09/10 07:36:40;;;;;;;22.95;13.57;;;;;;;24.25;72.44;101797.06;5057631;27;97870;-27
2023/09/10 07:39:06;;;;;;;18.88;12.75;;;;;;;24.35;71.84;101799.72;5057031;27;99357;-28
2023/09/10 07:41:32;;;;;;;23.48;12.63;;;;;;;24.50;71.55;101800.03;5038900;27;97075;-27
2023/09/10 07:43:59;;;;;;;20.23;13.10;;;;;;;24.65;71.44;101806.72;5039044;27;96962;-27
2023/09/10 07:46:24;;;;;;;24.67;13.60;;;;;;;24.76;70.99;101805.56;5038821;27;101606;-27
2023/09/10 07:48:50;;;;;;;26.45;13.63;;;;;;;24.91;70.65;101811.41;5057348;27;97226;-27
2023/09/10 07:51:15;;;;;;;25.90;12.45;;;;;;;24.93;70.34;101807.44;5056964;27;96565;-28
2023/09/10 07:53:40;;;;;;;20.88;12.02;;;;;;;25.06;70.30;101803.31;5057459;27;96749;-28
2023/09/10 07:56:06;;;;;;;21.38;12.88;;;;;;;25.17;69.99;101805.78;5057066;27;97399;-28
2023/09/10 07:58:32;;;;;;;19.98;11.38;;;;;;;25.32;69.76;101819.94;5038608;27;100664;-27
2023/09/10 08:00:58;;;;;;;21.02;11.68;;;;;;;25.41;69.64;101817.00;5057327;27;96508;-27
2023/09/10 08:03:23;;;;;;;20.60;11.75;;;;;;;25.51;69.26;101810.47;5038679;27;97003;-28
2023/09/10 08:05:49;;;;;;;21.35;12.00;;;;;;;25.64;68.46;101821.91;5056926;27;97928;-27
2023/09/10 08:08:14;;;;;;;18.58;11.35;;;;;;;25.76;68.45;101817.78;5056336;27;97216;-27
2023/09/10 08:10:40;;;;;;;21.40;11.95;;;;;;;25.79;68.24;101820.22;5056836;27;96663;-27
2023/09/10 08:13:05;;;;;;;17.00;11.00;;;;;;;25.90;68.07;101820.97;5057243;27;96807;-27
2023/09/10 08:15:31;;;;;;;21.38;10.98;;;;;;;25.93;67.64;101815.06;5056092;27;99265;-27
2023/09/10 08:17:58;;;;;;;19.17;10.90;;;;;;;26.01;67.32;101809.53;5038377;27;100803;-27
2023/09/10 08:20:24;;;;;;;19.38;10.57;;;;;;;26.14;67.65;101818.19;5038691;27;96828;-27
2023/09/10 08:22:49;;;;;;;18.50;10.10;;;;;;;26.32;66.91;101820.81;5056617;27;96935;-27
2023/09/10 08:25:14;;;;;;;15.90;10.50;;;;;;;26.39;67.04;101805.19;5056434;27;97864;-27
2023/09/10 08:27:40;;;;;;;20.85;11.30;;;;;;;26.50;66.84;101812.28;5056584;27;97660;-29
2023/09/10 08:30:07;;;;;;;23.42;11.50;;;;;;;26.53;66.58;101811.94;5056705;27;96465;-27
2023/09/10 08:32:34;;;;;;;18.88;11.18;;;;;;;26.66;66.85;101800.31;5038606;27;96962;-27
2023/09/10 08:34:59;;;;;;;17.88;10.27;;;;;;;26.75;66.13;101803.94;5037941;27;100922;-27
2023/09/10 08:37:25;;;;;;;17.77;10.63;;;;;;;26.85;66.37;101805.47;5056258;27;99522;-27
2023/09/10 08:39:50;;;;;;;16.85;10.13;;;;;;;26.90;66.23;101794.66;5056385;27;96658;-28
2023/09/10 08:42:21;;;;;;;16.50;9.70;;;;;;;27.01;65.31;101798.13;5055902;27;96940;-27
2023/09/10 08:44:53;;;;;;;15.38;9.85;;;;;;;27.10;65.17;101792.34;5037797;27;101357;-27
2023/09/10 08:47:22;;;;;;;16.50;10.00;;;;;;;27.21;64.96;101793.03;5056414;27;97879;-28
2023/09/10 08:49:51;;;;;;;20.52;10.20;;;;;;;27.24;64.80;101789.88;5056532;27;96557;-27
2023/09/10 08:52:18;;;;;;;21.38;10.63;;;;;;;27.35;64.03;101797.81;5037545;27;96806;-27
2023/09/10 08:54:43;;;;;;;16.20;9.95;;;;;;;27.37;64.30;101792.94;5037561;27;101004;-27
2023/09/10 08:57:11;;;;;;;15.07;9.68;;;;;;;27.51;64.58;101794.94;5055321;27;97844;-27
2023/09/10 08:59:38;;;;;;;21.08;10.38;;;;;;;27.59;64.50;101798.72;5037634;27;96644;-27
2023/09/10 09:02:04;;;;;;;15.30;9.55;;;;;;;27.65;64.57;101796.09;5037650;27;96949;-27
2023/09/10 09:04:30;;;;;;;14.55;9.35;;;;;;;27.75;63.77;101795.84;5055287;27;99444;-27
2023/09/10 09:07:00;;;;;;;13.60;9.25;;;;;;;27.88;63.83;101792.47;5037623;27;101093;-27
2023/09/10 09:09:29;;;;;;;16.38;8.50;;;;;;;28.02;63.27;101793.59;5038033;27;96606;-27
2023/09/10 09:11:56;;;;;;;16.90;9.55;;;;;;;28.10;63.19;101793.50;5056091;27;96782;-28
2023/09/10 09:14:23;;;;;;;16.50;9.13;;;;;;;28.24;63.07;101806.59;5054779;27;99437;-27
2023/09/10 09:16:50;;;;;;;17.10;7.70;;;;;;;28.32;62.80;101800.97;5055561;27;98797;-27
2023/09/10 09:19:17;;;;;;;13.73;8.10;;;;;;;28.50;62.39;101802.56;5037497;27;96747;-28
2023/09/10 09:21:43;;;;;;;17.13;8.20;;;;;;;28.54;62.03;101802.00;5037581;27;96852;-27
2023/09/10 09:24:10;;;;;;;10.77;6.63;;;;;;;28.65;61.96;101800.69;5037243;27;100921;-27
2023/09/10 09:26:36;;;;;;;14.43;7.60;;;;;;;28.70;61.19;101802.88;5055207;27;99099;-27
2023/09/10 09:29:02;;;;;;;11.40;7.32;;;;;;;28.77;61.38;101798.25;5055339;27;96651;-27
2023/09/10 09:31:28;;;;;;;12.20;7.05;;;;;;;28.93;61.32;101791.66;5055573;27;96498;-29
2023/09/10 09:33:53;;;;;;;11.63;6.80;;;;;;;29.05;60.99;101787.31;5036490;27;100552;-27
2023/09/10 09:36:28;;;;;;;11.75;6.43;;;;;;;29.18;60.66;101798.69;5055347;27;99146;-28
2023/09/10 09:38:54;;;;;;;11.88;6.03;;;;;;;29.27;60.61;101784.59;5055748;27;96589;-27
2023/09/10 09:41:21;;;;;;;11.07;5.97;;;;;;;29.38;58.84;101779.38;5037288;27;96899;-28
2023/09/10 09:43:46;;;;;;;12.25;5.70;;;;;;;29.49;59.12;101788.34;5054606;27;99937;-29
2023/09/10 09:46:12;;;;;;;15.10;6.13;;;;;;;29.67;59.38;101782.34;5055518;27;99210;-27
2023/09/10 09:48:38;;;;;;;12.20;6.03;;;;;;;29.82;59.34;101783.16;5055437;27;96564;-28
2023/09/10 09:51:04;;;;;;;7.20;4.80;;;;;;;30.00;59.07;101791.91;5035154;27;96973;-28
2023/09/10 09:53:32;;;;;;;7.85;5.68;;;;;;;30.11;58.45;101787.72;5033823;27;101263;-29
2023/09/10 09:56:03;;;;;;;8.10;5.32;;;;;;;30.22;58.54;101784.41;5034425;27;101170;-33
2023/09/10 09:58:29;;;;;;;7.70;4.63;;;;;;;30.25;57.91;101783.13;5053402;27;96912;-27
2023/09/10 10:00:55;;;;;;;8.60;4.57;;;;;;;30.15;57.30;101772.28;5034723;27;97100;-33
2023/09/10 10:03:21;;;;;;;6.95;4.03;;;;;;;30.35;57.09;101792.06;5034477;27;101145;-28
2023/09/10 10:05:54;;;;;;;7.40;3.97;;;;;;;30.52;56.23;101773.03;5054008;27;97279;-27
2023/09/10 10:08:25;;;;;;;9.07;4.15;;;;;;;30.63;56.02;101774.38;5035894;27;97082;-29
2023/09/10 10:10:50;;;;;;;5.50;3.60;;;;;;;30.72;55.91;101775.09;5055217;27;96742;-27
2023/09/10 10:13:27;;;;;;;8.05;4.25;;;;;;;30.78;54.27;101763.97;5053218;27;98411;-28
2023/09/10 10:15:54;;;;;;;5.45;3.38;;;;;;;30.81;55.33;101760.72;5036459;27;99190;-28
2023/09/10 10:18:21;;;;;;;6.80;3.90;;;;;;;30.90;55.36;101769.88;5036045;27;96654;-29
2023/09/10 10:20:49;;;;;;;6.72;3.67;;;;;;;30.88;53.84;101761.66;5054897;27;96783;-28
2023/09/10 10:23:18;;;;;;;6.00;3.75;;;;;;;30.94;51.30;101767.50;5054670;27;97965;-27
2023/09/10 10:25:45;;;;;;;8.45;3.38;;;;;;;30.94;53.54;101760.00;5036166;27;101091;-28
2023/09/10 10:28:11;;;;;;;9.45;3.58;;;;;;;31.11;53.35;101763.31;5035926;27;96804;-32
2023/09/10 10:30:54;;;;;;;5.10;3.72;;;;;;;31.30;52.43;101767.25;5036384;27;96941;-28
2023/09/10 10:33:24;;;;;;;6.57;3.67;;;;;;;31.44;51.74;101760.66;5038826;27;101299;-28
2023/09/10 10:36:08;;;;;;;8.77;3.55;;;;;;;31.40;51.20;101764.94;5058849;27;97815;-27
2023/09/10 10:38:36;;;;;;;7.32;3.03;;;;;;;31.48;52.23;101763.88;5058511;27;96574;-28
2023/09/10 10:41:06;;;;;;;7.75;3.83;;;;;;;31.67;52.50;101765.03;5058133;27;96880;-28
2023/09/10 10:43:45;;;;;;;5.20;3.17;;;;;;;31.80;51.59;101755.75;5023258;28;98961;-27
2023/09/10 10:46:12;;;;;;;7.18;3.75;;;;;;;31.85;52.09;101753.22;4996279;28;100288;-28
2023/09/10 10:48:41;;;;;;;5.80;3.35;;;;;;;32.00;52.47;101753.88;4996695;28;96787;-28
2023/09/10 10:51:10;;;;;;;9.55;3.83;;;;;;;32.09;51.37;101758.22;4996490;28;96865;-27
2023/09/10 10:53:36;;;;;;;7.35;3.58;;;;;;;32.20;52.11;101753.88;4996072;28;101342;-27
2023/09/10 10:56:04;;;;;;;12.23;3.50;;;;;;;32.15;49.68;101750.88;5001443;28;97259;-28
2023/09/10 10:58:31;;;;;;;6.72;3.58;;;;;;;32.20;50.91;101761.44;5014253;28;98014;-27
2023/09/10 11:00:58;;;;;;;7.15;3.63;;;;;;;32.31;51.61;101756.03;5016585;28;97009;-28
2023/09/10 11:03:25;;;;;;;7.70;3.42;;;;;;;32.34;50.52;101749.13;5015726;28;100845;-29
2023/09/10 11:05:53;;;;;;;6.28;3.88;;;;;;;32.45;50.54;101751.28;5017354;28;97263;-29
2023/09/10 11:08:29;;;;;;;5.88;3.45;;;;;;;32.42;48.20;101748.94;5017042;28;96563;-27
2023/09/10 11:10:55;;;;;;;7.05;2.90;;;;;;;32.42;49.59;101746.13;5016159;28;97249;-29